createdAt,value
2022-12-04T00:01:21.428Z,0.50
2022-12-04T00:03:49.508Z,0.30
2022-12-04T00:06:19.268Z,0.60
2022-12-04T00:08:48.164Z,1.10
2022-12-04T00:11:19.479Z,0.90
2022-12-04T00:13:47.520Z,0.60
2022-12-04T00:16:17.153Z,0.40
2022-12-04T00:18:45.445Z,0.30
2022-12-04T00:21:15.022Z,0.10
2022-12-04T00:23:43.337Z,0.70
2022-12-04T00:26:18.221Z,0.40
2022-12-04T00:28:46.416Z,0.80
2022-12-04T00:31:16.175Z,1.10
2022-12-04T00:33:44.356Z,0.90
2022-12-04T00:36:14.556Z,0.60
2022-12-04T00:38:44.060Z,0.60
2022-12-04T00:41:12.470Z,0.90
2022-12-04T00:43:41.773Z,1.00
2022-12-04T00:46:10.275Z,0.90
2022-12-04T00:48:38.235Z,0.60
2022-12-04T00:51:07.231Z,0.30
2022-12-04T00:53:35.043Z,0.40
2022-12-04T00:56:05.701Z,0.40
2022-12-04T00:58:33.728Z,0.30
2022-12-04T01:01:08.399Z,0.40
2022-12-04T01:03:36.576Z,0.30
2022-12-04T01:06:05.084Z,0.20
2022-12-04T01:08:33.581Z,0.40
2022-12-04T01:11:01.356Z,0.60
2022-12-04T01:13:29.169Z,0.70
2022-12-04T01:15:57.015Z,0.30
2022-12-04T01:18:26.244Z,0.40
2022-12-04T01:20:54.449Z,0.80
2022-12-04T01:23:22.481Z,0.70
2022-12-04T01:25:54.351Z,1.10
2022-12-04T01:28:22.766Z,1.00
2022-12-04T01:31:02.383Z,1.00
2022-12-04T01:33:32.636Z,0.70
2022-12-04T01:36:01.963Z,0.30
2022-12-04T01:38:30.181Z,0.60
2022-12-04T01:40:58.537Z,0.60
2022-12-04T01:43:27.446Z,0.60
2022-12-04T01:45:57.725Z,0.40
2022-12-04T01:48:30.719Z,0.40
2022-12-04T01:51:05.784Z,0.60
2022-12-04T01:53:35.306Z,0.20
2022-12-04T01:56:04.099Z,0.20
2022-12-04T01:58:35.962Z,0.60
2022-12-04T02:01:09.195Z,1.00
2022-12-04T02:03:37.639Z,1.00
2022-12-04T02:06:07.633Z,0.90
2022-12-04T02:08:37.214Z,1.00
2022-12-04T02:11:14.681Z,1.00
2022-12-04T02:13:50.300Z,0.50
2022-12-04T02:16:24.678Z,0.60
2022-12-04T02:19:05.197Z,0.80
2022-12-04T02:21:38.508Z,0.70
2022-12-04T02:24:48.289Z,0.70
2022-12-04T02:27:32.076Z,0.40
2022-12-04T02:30:04.709Z,0.50
2022-12-04T02:32:40.455Z,0.40
2022-12-04T02:35:12.525Z,0.50
2022-12-04T02:37:45.998Z,0.60
2022-12-04T02:40:20.394Z,0.30
2022-12-04T02:42:54.540Z,0.50
2022-12-04T02:45:28.824Z,0.50
2022-12-04T02:47:57.650Z,0.30
2022-12-04T02:50:26.891Z,0.30
2022-12-04T02:52:58.312Z,0.50
2022-12-04T02:55:32.361Z,0.50
2022-12-04T02:58:05.333Z,0.30
2022-12-04T03:00:36.568Z,0.70
2022-12-04T03:03:09.618Z,0.50
2022-12-04T03:05:42.470Z,0.40
2022-12-04T03:08:16.581Z,0.10
2022-12-04T03:10:49.794Z,0.10
2022-12-04T03:13:21.408Z,0.60
2022-12-04T03:15:55.202Z,0.50
2022-12-04T03:18:27.322Z,0.40
2022-12-04T03:21:02.632Z,0.20
2022-12-04T03:23:35.181Z,0.40
2022-12-04T03:26:08.138Z,0.70
2022-12-04T03:28:47.615Z,0.50
2022-12-04T03:31:22.925Z,0.20
2022-12-04T03:33:52.924Z,0.30
2022-12-04T03:36:25.914Z,0.50
2022-12-04T03:38:58.347Z,0.50
2022-12-04T03:41:31.090Z,0.30
2022-12-04T03:44:05.687Z,0.40
2022-12-04T03:46:39.572Z,0.40
2022-12-04T03:49:13.706Z,0.30
2022-12-04T03:51:48.899Z,0.20
2022-12-04T03:54:20.809Z,0.90
2022-12-04T03:56:53.849Z,1.10
2022-12-04T03:59:25.735Z,0.80
2022-12-04T04:01:57.188Z,0.80
2022-12-04T04:04:29.320Z,1.10
2022-12-04T04:07:03.900Z,0.90
2022-12-04T04:09:38.085Z,1.00
2022-12-04T04:12:09.624Z,0.40
2022-12-04T04:14:59.548Z,0.30
2022-12-04T04:17:49.698Z,0.90
2022-12-04T04:20:39.562Z,0.90
2022-12-04T04:23:29.580Z,0.30
2022-12-04T04:25:59.054Z,0.10
2022-12-04T04:28:32.971Z,0.40
2022-12-04T04:31:09.215Z,1.00
2022-12-04T04:33:47.025Z,0.60
2022-12-04T04:36:24.617Z,0.60
2022-12-04T04:39:02.204Z,0.90
2022-12-04T04:41:37.620Z,0.60
2022-12-04T04:44:16.113Z,0.30
2022-12-04T04:46:49.236Z,0.30
2022-12-04T04:49:20.086Z,0.70
2022-12-04T04:51:49.176Z,0.40
2022-12-04T04:54:18.778Z,0.80
2022-12-04T04:56:48.303Z,0.70
2022-12-04T04:59:17.019Z,0.30
2022-12-04T05:01:47.211Z,0.70
2022-12-04T05:04:15.434Z,0.50
2022-12-04T05:06:44.602Z,0.70
2022-12-04T05:09:12.469Z,0.50
2022-12-04T05:11:40.351Z,0.90
2022-12-04T05:14:09.407Z,0.60
2022-12-04T05:16:41.639Z,0.60
2022-12-04T05:19:27.073Z,0.50
2022-12-04T05:21:57.032Z,1.00
2022-12-04T05:24:24.903Z,1.40
2022-12-04T05:26:52.655Z,1.10
2022-12-04T05:29:20.525Z,1.10
2022-12-04T05:31:48.505Z,0.60
2022-12-04T05:34:16.316Z,0.60
2022-12-04T05:36:44.059Z,1.00
2022-12-04T05:39:13.238Z,1.30
2022-12-04T05:41:41.077Z,1.10
2022-12-04T05:44:08.865Z,0.90
2022-12-04T05:46:36.854Z,1.10
2022-12-04T05:49:04.651Z,1.20
2022-12-04T05:51:32.487Z,1.00
2022-12-04T05:54:00.239Z,1.10
2022-12-04T05:56:29.410Z,0.80
2022-12-04T05:58:57.186Z,0.50
2022-12-04T06:01:25.922Z,0.50
2022-12-04T06:03:53.742Z,0.60
2022-12-04T06:06:23.947Z,0.70
2022-12-04T06:08:52.599Z,0.10
2022-12-04T06:11:23.263Z,0.50
2022-12-04T06:13:52.925Z,1.00
2022-12-04T06:16:23.543Z,1.10
2022-12-04T06:18:52.440Z,0.90
2022-12-04T06:21:20.894Z,0.90
2022-12-04T06:23:49.074Z,0.50
2022-12-04T06:26:16.961Z,0.50
2022-12-04T06:28:44.887Z,0.80
2022-12-04T06:31:16.348Z,0.60
2022-12-04T06:33:44.498Z,0.30
2022-12-04T06:36:14.216Z,0.80
2022-12-04T06:38:42.726Z,0.60
2022-12-04T06:41:12.546Z,0.90
2022-12-04T06:43:40.778Z,0.30
2022-12-04T06:46:11.321Z,0.60
2022-12-04T06:48:40.992Z,0.60
2022-12-04T06:51:11.008Z,0.60
2022-12-04T06:53:39.478Z,0.60
2022-12-04T06:56:10.106Z,0.80
2022-12-04T06:58:38.178Z,0.60
2022-12-04T07:01:09.121Z,0.90
2022-12-04T07:03:37.391Z,0.70
2022-12-04T07:06:14.353Z,1.00
2022-12-04T07:08:42.516Z,1.00
2022-12-04T07:11:10.467Z,0.80
2022-12-04T07:13:38.745Z,0.80
2022-12-04T07:16:09.463Z,0.50
2022-12-04T07:18:38.017Z,0.80
2022-12-04T07:21:07.229Z,1.20
2022-12-04T07:23:36.629Z,1.30
2022-12-04T07:26:08.062Z,1.40
2022-12-04T07:28:37.154Z,1.00
2022-12-04T07:31:06.284Z,0.80
2022-12-04T07:33:34.222Z,1.10
2022-12-04T07:36:04.234Z,0.80
2022-12-04T07:38:33.073Z,1.10
2022-12-04T07:41:03.030Z,0.90
2022-12-04T07:43:31.695Z,0.50
2022-12-04T07:46:00.333Z,0.50
2022-12-04T07:48:33.146Z,0.60
2022-12-04T07:51:06.901Z,0.60
2022-12-04T07:53:35.745Z,0.60
2022-12-04T07:56:06.546Z,1.10
2022-12-04T07:58:35.085Z,0.80
2022-12-04T08:01:07.674Z,1.00
2022-12-04T08:03:42.117Z,1.30
2022-12-04T08:06:13.756Z,1.50
2022-12-04T08:08:41.560Z,1.20
2022-12-04T08:11:12.754Z,1.40
2022-12-04T08:13:40.664Z,1.00
2022-12-04T08:16:10.458Z,1.20
2022-12-04T08:18:38.695Z,1.30
2022-12-04T08:21:07.770Z,1.40
2022-12-04T08:23:36.356Z,1.10
2022-12-04T08:26:05.115Z,0.70
2022-12-04T08:28:34.552Z,1.20
2022-12-04T08:31:04.682Z,1.30
2022-12-04T08:33:32.991Z,1.50
2022-12-04T08:36:01.413Z,1.40
2022-12-04T08:38:29.176Z,1.50
2022-12-04T08:41:01.024Z,1.40
2022-12-04T08:43:28.813Z,1.50
2022-12-04T08:45:59.637Z,1.10
2022-12-04T08:48:28.423Z,1.00
2022-12-04T08:50:56.563Z,1.20
2022-12-04T08:53:24.733Z,1.50
2022-12-04T08:55:53.160Z,1.60
2022-12-04T08:58:21.113Z,1.60
2022-12-04T09:00:49.027Z,1.30
2022-12-04T09:03:19.895Z,1.20
2022-12-04T09:05:48.528Z,1.30
2022-12-04T09:08:17.703Z,1.20
2022-12-04T09:10:45.818Z,1.30
2022-12-04T09:13:13.592Z,1.30
2022-12-04T09:15:41.824Z,1.60
2022-12-04T09:18:10.969Z,1.70
2022-12-04T09:20:40.052Z,1.40
2022-12-04T09:23:07.827Z,1.20
2022-12-04T09:25:36.875Z,1.20
2022-12-04T09:28:05.456Z,1.30
2022-12-04T09:30:33.261Z,1.30
2022-12-04T09:33:01.001Z,1.20
2022-12-04T09:35:29.726Z,1.20
2022-12-04T09:37:59.194Z,1.50
2022-12-04T09:40:35.213Z,1.50
2022-12-04T09:43:13.854Z,1.70
2022-12-04T09:45:46.927Z,1.70
2022-12-04T09:48:17.336Z,1.70
2022-12-04T09:50:47.968Z,1.70
2022-12-04T09:53:21.021Z,1.60
2022-12-04T09:55:55.988Z,1.60
2022-12-04T09:58:26.784Z,1.70
2022-12-04T10:00:56.315Z,1.70
2022-12-04T10:03:28.790Z,1.60
2022-12-04T10:06:06.383Z,1.60
2022-12-04T10:08:39.398Z,1.70
2022-12-04T10:11:15.661Z,1.80
2022-12-04T10:14:06.811Z,1.50
2022-12-04T10:16:46.819Z,1.50
2022-12-04T10:19:23.643Z,1.60
2022-12-04T10:22:04.707Z,1.70
2022-12-04T10:24:43.023Z,1.80
2022-12-04T10:27:16.050Z,1.90
2022-12-04T10:29:48.317Z,1.90
2022-12-04T10:32:21.232Z,2.00
2022-12-04T10:34:53.366Z,2.10
2022-12-04T10:37:22.275Z,2.00
2022-12-04T10:39:56.707Z,1.90
2022-12-04T10:42:32.270Z,1.70
2022-12-04T10:45:00.119Z,1.80
2022-12-04T10:47:28.945Z,1.90
2022-12-04T10:50:01.457Z,1.90
2022-12-04T10:52:29.376Z,1.90
2022-12-04T10:55:00.529Z,2.00
2022-12-04T10:57:39.447Z,2.00
2022-12-04T11:00:27.708Z,2.00
2022-12-04T11:02:58.197Z,1.90
2022-12-04T11:05:30.152Z,1.90
2022-12-04T11:07:59.533Z,2.00
2022-12-04T11:10:34.218Z,2.10
2022-12-04T11:13:03.984Z,2.20
2022-12-04T11:15:32.138Z,2.10
2022-12-04T11:18:09.483Z,2.10
2022-12-04T11:20:37.414Z,1.90
2022-12-04T11:23:06.465Z,1.80
2022-12-04T11:25:45.879Z,1.90
2022-12-04T11:28:33.809Z,1.90
2022-12-04T11:31:07.401Z,1.80
2022-12-04T11:33:39.648Z,2.10
2022-12-04T11:36:19.647Z,2.30
2022-12-04T11:38:47.798Z,2.30
2022-12-04T11:41:27.363Z,2.30
2022-12-04T11:44:00.041Z,2.20
2022-12-04T11:46:31.177Z,2.10
2022-12-04T11:48:59.412Z,2.10
2022-12-04T11:51:35.380Z,2.20
2022-12-04T11:54:14.909Z,2.20
2022-12-04T11:56:49.448Z,2.30
2022-12-04T11:59:55.337Z,2.30
2022-12-04T12:02:37.024Z,2.20
2022-12-04T12:05:17.946Z,2.10
2022-12-04T12:08:00.582Z,2.20
2022-12-04T12:10:41.527Z,2.30
2022-12-04T12:13:21.646Z,2.30
2022-12-04T12:15:59.690Z,2.30
2022-12-04T12:18:44.760Z,2.30
2022-12-04T12:21:17.310Z,2.30
2022-12-04T12:23:58.079Z,2.40
2022-12-04T12:26:33.134Z,2.60
2022-12-04T12:29:17.637Z,2.60
2022-12-04T12:32:05.165Z,2.50
2022-12-04T12:34:38.410Z,2.50
2022-12-04T12:37:15.004Z,2.60
2022-12-04T12:39:49.042Z,2.60
2022-12-04T12:42:22.237Z,2.80
2022-12-04T12:44:56.860Z,2.90
2022-12-04T12:47:29.011Z,2.90
2022-12-04T12:50:00.825Z,2.90
2022-12-04T12:52:35.554Z,3.10
2022-12-04T12:55:06.549Z,3.10
2022-12-04T12:57:37.738Z,3.10
2022-12-04T13:00:15.392Z,3.10
2022-12-04T13:02:48.101Z,2.90
2022-12-04T13:05:21.375Z,2.80
2022-12-04T13:07:55.099Z,2.60
2022-12-04T13:10:26.799Z,2.50
2022-12-04T13:12:58.800Z,2.90
2022-12-04T13:15:37.099Z,3.00
2022-12-04T13:18:07.740Z,3.00
2022-12-04T13:20:44.589Z,3.10
2022-12-04T13:23:22.714Z,3.00
2022-12-04T13:25:59.609Z,3.00
2022-12-04T13:28:45.168Z,3.20
2022-12-04T13:31:25.433Z,3.10
2022-12-04T13:34:11.905Z,3.30
2022-12-04T13:37:04.656Z,3.30
2022-12-04T13:39:57.279Z,3.40
2022-12-04T13:42:28.267Z,3.30
2022-12-04T13:44:59.033Z,3.30
2022-12-04T13:47:31.639Z,3.10
2022-12-04T13:50:22.413Z,3.20
2022-12-04T13:52:53.417Z,3.20
2022-12-04T13:55:32.489Z,3.30
2022-12-04T13:58:02.974Z,3.20
2022-12-04T14:00:33.486Z,3.30
2022-12-04T14:03:05.837Z,3.30
2022-12-04T14:05:41.859Z,3.30
2022-12-04T14:08:24.720Z,3.30
2022-12-04T14:11:01.854Z,3.30
2022-12-04T14:13:43.300Z,3.30
2022-12-04T14:16:20.900Z,3.20
2022-12-04T14:18:53.587Z,3.30
2022-12-04T14:21:21.871Z,3.10
2022-12-04T14:23:51.197Z,3.30
2022-12-04T14:27:10.158Z,3.40
2022-12-04T14:29:35.990Z,3.30
2022-12-04T14:32:10.384Z,3.50
2022-12-04T14:34:40.321Z,3.50
2022-12-04T14:37:12.296Z,3.50
2022-12-04T14:39:44.057Z,3.50
2022-12-04T14:42:15.402Z,3.50
2022-12-04T14:44:55.199Z,3.50
2022-12-04T14:47:36.412Z,3.60
2022-12-04T14:50:20.553Z,3.60
2022-12-04T14:52:53.985Z,3.70
2022-12-04T14:55:31.788Z,3.50
2022-12-04T14:58:21.459Z,3.30
2022-12-04T15:00:53.396Z,3.40
2022-12-04T15:03:22.057Z,3.60
2022-12-04T15:05:52.933Z,3.50
2022-12-04T15:08:21.098Z,3.50
2022-12-04T15:11:08.973Z,3.70
2022-12-04T15:13:38.540Z,3.70
2022-12-04T15:16:11.335Z,3.80
2022-12-04T15:18:39.756Z,3.80
2022-12-04T15:21:12.079Z,3.80
2022-12-04T15:23:42.303Z,3.80
2022-12-04T15:26:13.407Z,3.90
2022-12-04T15:28:45.672Z,3.90
2022-12-04T15:31:16.950Z,3.70
2022-12-04T15:33:47.235Z,3.70
2022-12-04T15:36:20.799Z,3.60
2022-12-04T15:38:50.393Z,3.70
2022-12-04T15:41:32.109Z,3.80
2022-12-04T15:44:00.616Z,3.80
2022-12-04T15:46:33.500Z,3.90
2022-12-04T15:49:16.203Z,3.90
2022-12-04T15:51:45.768Z,3.80
2022-12-04T15:54:21.787Z,3.70
2022-12-04T15:57:00.147Z,3.80
2022-12-04T15:59:29.440Z,3.80
2022-12-04T16:01:59.702Z,3.70
2022-12-04T16:04:35.320Z,3.60
2022-12-04T16:07:04.575Z,3.60
2022-12-04T16:09:32.408Z,3.70
2022-12-04T16:12:02.145Z,3.70
2022-12-04T16:14:30.304Z,3.70
2022-12-04T16:17:05.913Z,3.70
2022-12-04T16:19:36.443Z,3.80
2022-12-04T16:22:12.775Z,3.70
2022-12-04T16:24:40.607Z,3.60
2022-12-04T16:27:12.483Z,3.70
2022-12-04T16:29:40.272Z,3.80
2022-12-04T16:32:10.054Z,3.70
2022-12-04T16:34:37.904Z,3.80
2022-12-04T16:37:13.111Z,3.80
2022-12-04T16:39:41.550Z,3.70
2022-12-04T16:42:17.642Z,3.80
2022-12-04T16:44:45.879Z,3.70
2022-12-04T16:47:14.681Z,3.70
2022-12-04T16:49:43.009Z,3.60
2022-12-04T16:52:13.002Z,3.60
2022-12-04T16:54:41.468Z,3.50
2022-12-04T16:57:09.928Z,3.50
2022-12-04T16:59:37.764Z,3.70
2022-12-04T17:02:14.723Z,3.60
2022-12-04T17:04:42.526Z,3.50
2022-12-04T17:07:11.863Z,3.60
2022-12-04T17:09:39.607Z,3.60
2022-12-04T17:12:07.558Z,3.60
2022-12-04T17:14:35.578Z,3.50
2022-12-04T17:17:03.384Z,3.60
2022-12-04T17:19:31.136Z,3.60
2022-12-04T17:22:01.105Z,3.60
2022-12-04T17:24:30.331Z,3.60
2022-12-04T17:26:58.556Z,3.50
2022-12-04T17:29:26.362Z,3.50
2022-12-04T17:31:54.192Z,3.50
2022-12-04T17:34:22.072Z,3.50
2022-12-04T17:36:49.863Z,3.30
2022-12-04T17:39:17.712Z,3.20
2022-12-04T17:41:46.816Z,3.40
2022-12-04T17:44:14.603Z,3.30
2022-12-04T17:46:42.475Z,3.40
2022-12-04T17:49:10.294Z,3.50
2022-12-04T17:51:38.304Z,3.40
2022-12-04T17:54:06.892Z,3.50
2022-12-04T17:56:34.697Z,3.50
2022-12-04T17:59:04.552Z,3.50
2022-12-04T18:01:32.471Z,3.60
2022-12-04T18:04:03.098Z,3.50
2022-12-04T18:06:32.612Z,3.50
2022-12-04T18:09:00.552Z,3.40
2022-12-04T18:11:30.937Z,3.50
2022-12-04T18:14:01.136Z,3.50
2022-12-04T18:16:32.268Z,3.50
2022-12-04T18:19:01.762Z,3.50
2022-12-04T18:21:30.274Z,3.40
2022-12-04T18:24:02.698Z,3.30
2022-12-04T18:26:34.671Z,3.30
2022-12-04T18:29:03.047Z,3.40
2022-12-04T18:31:32.810Z,3.50
2022-12-04T18:34:00.937Z,3.50
2022-12-04T18:36:30.481Z,3.40
2022-12-04T18:39:00.212Z,3.40
2022-12-04T18:41:28.798Z,3.50
2022-12-04T18:43:56.969Z,3.40
2022-12-04T18:46:25.532Z,3.40
2022-12-04T18:48:56.074Z,3.50
2022-12-04T18:51:26.714Z,3.40
2022-12-04T18:53:57.152Z,3.40
2022-12-04T18:56:25.165Z,3.10
2022-12-04T18:58:58.195Z,3.30
2022-12-04T19:01:26.303Z,3.30
2022-12-04T19:03:58.857Z,3.40
2022-12-04T19:06:31.090Z,3.40
2022-12-04T19:09:00.596Z,3.40
2022-12-04T19:11:28.798Z,3.30
2022-12-04T19:13:56.941Z,3.40
2022-12-04T19:16:24.767Z,3.40
2022-12-04T19:18:53.011Z,3.40
2022-12-04T19:21:22.268Z,3.40
2022-12-04T19:23:53.086Z,3.40
2022-12-04T19:26:20.876Z,3.30
2022-12-04T19:28:48.731Z,3.30
2022-12-04T19:31:18.331Z,3.30
2022-12-04T19:33:47.520Z,3.20
2022-12-04T19:36:16.251Z,3.20
2022-12-04T19:38:45.635Z,3.30
2022-12-04T19:41:15.295Z,3.20
2022-12-04T19:43:44.591Z,3.30
2022-12-04T19:46:14.236Z,3.20
2022-12-04T19:48:42.480Z,3.30
2022-12-04T19:51:12.961Z,3.20
2022-12-04T19:53:41.429Z,3.20
2022-12-04T19:56:13.644Z,3.20
2022-12-04T19:58:42.077Z,3.30
2022-12-04T20:01:12.828Z,3.30
2022-12-04T20:03:40.911Z,3.20
2022-12-04T20:06:11.785Z,3.20
2022-12-04T20:08:40.149Z,3.20
2022-12-04T20:11:11.754Z,3.20
2022-12-04T20:13:39.869Z,3.20
2022-12-04T20:16:10.118Z,3.20
2022-12-04T20:18:38.769Z,3.20
2022-12-04T20:21:10.910Z,3.20
2022-12-04T20:23:39.093Z,3.20
2022-12-04T20:26:08.551Z,3.20
2022-12-04T20:28:38.233Z,3.20
2022-12-04T20:31:13.328Z,3.20
2022-12-04T20:33:41.507Z,3.20
2022-12-04T20:36:10.442Z,3.20
2022-12-04T20:38:39.016Z,3.10
2022-12-04T20:41:07.796Z,3.00
2022-12-04T20:43:37.322Z,3.00
2022-12-04T20:46:15.020Z,3.00
2022-12-04T20:48:47.875Z,3.10
2022-12-04T20:51:16.711Z,3.10
2022-12-04T20:53:44.885Z,3.10
2022-12-04T20:56:13.404Z,3.10
2022-12-04T20:58:42.658Z,3.10
2022-12-04T21:01:14.153Z,3.10
2022-12-04T21:03:42.680Z,3.10
2022-12-04T21:06:14.502Z,3.10
2022-12-04T21:08:54.569Z,3.10
2022-12-04T21:11:23.471Z,3.10
2022-12-04T21:14:10.682Z,3.10
2022-12-04T21:16:38.868Z,3.10
2022-12-04T21:19:08.036Z,3.10
2022-12-04T21:21:36.589Z,3.10
2022-12-04T21:24:04.951Z,3.10
2022-12-04T21:26:33.863Z,3.10
2022-12-04T21:29:04.680Z,3.10
2022-12-04T21:31:32.904Z,3.10
2022-12-04T21:34:02.344Z,3.00
2022-12-04T21:36:30.910Z,3.00
2022-12-04T21:38:58.790Z,3.10
2022-12-04T21:41:44.250Z,3.00
2022-12-04T21:44:16.259Z,3.00
2022-12-04T21:46:44.907Z,3.00
2022-12-04T21:49:13.593Z,3.00
2022-12-04T21:51:57.480Z,3.00
2022-12-04T21:54:26.139Z,3.00
2022-12-04T21:56:54.082Z,2.90
2022-12-04T21:59:23.818Z,3.00
2022-12-04T22:01:52.027Z,2.90
2022-12-04T22:04:20.307Z,2.90
2022-12-04T22:06:48.465Z,3.00
2022-12-04T22:09:16.330Z,2.90
2022-12-04T22:11:44.428Z,2.80
2022-12-04T22:14:13.277Z,2.90
2022-12-04T22:16:43.378Z,3.00
2022-12-04T22:19:12.605Z,2.90
2022-12-04T22:21:41.101Z,2.80
2022-12-04T22:24:10.315Z,2.90
2022-12-04T22:26:38.770Z,3.00
2022-12-04T22:29:27.164Z,3.00
2022-12-04T22:31:56.493Z,2.90
2022-12-04T22:34:24.299Z,3.00
2022-12-04T22:36:52.096Z,2.90
2022-12-04T22:39:19.826Z,2.90
2022-12-04T22:41:47.594Z,2.80
2022-12-04T22:44:15.479Z,2.90
2022-12-04T22:46:43.314Z,2.90
2022-12-04T22:49:12.500Z,2.70
2022-12-04T22:51:40.283Z,2.90
2022-12-04T22:54:08.572Z,2.90
2022-12-04T22:56:36.438Z,2.90
2022-12-04T23:01:46.333Z,2.90
2022-12-04T23:04:15.464Z,2.90
2022-12-04T23:06:43.187Z,2.90
2022-12-04T23:09:14.960Z,2.90
2022-12-04T23:11:43.431Z,2.90
2022-12-04T23:14:13.976Z,2.80
2022-12-04T23:16:42.567Z,2.90
2022-12-04T23:19:15.883Z,2.90
2022-12-04T23:21:45.648Z,2.80
2022-12-04T23:24:13.975Z,2.80
2022-12-04T23:26:43.741Z,2.90
2022-12-04T23:29:37.018Z,2.80
2022-12-04T23:31:59.705Z,2.90
2022-12-04T23:34:27.520Z,2.90
2022-12-04T23:36:56.791Z,2.80
2022-12-04T23:39:24.672Z,2.80
2022-12-04T23:41:52.552Z,2.80
2022-12-04T23:44:20.353Z,2.80
2022-12-04T23:46:48.269Z,2.90
2022-12-04T23:49:16.177Z,2.80
2022-12-04T23:51:43.940Z,2.90
2022-12-04T23:54:13.063Z,2.80
2022-12-04T23:56:41.039Z,2.80
2022-12-04T23:59:08.860Z,2.80
